sensor_id;sensor_type;location;lat;lon;timestamp;pressure;altitude;pressure_sealevel;temperature;humidity
63035;BME280;59750;53.356;-1.458;2022-11-15T00:01:59;99093.56;;;8.72;100.00
63035;BME280;59750;53.356;-1.458;2022-11-15T00:04:24;99089.41;;;8.69;100.00
63035;BME280;59750;53.356;-1.458;2022-11-15T00:06:50;99090.91;;;8.62;100.00
63035;BME280;59750;53.356;-1.458;2022-11-15T00:09:16;99078.06;;;8.59;100.00
63035;BME280;59750;53.356;-1.458;2022-11-15T00:11:42;99087.09;;;8.45;100.00
63035;BME280;59750;53.356;-1.458;2022-11-15T00:14:08;99074.25;;;8.42;100.00
63035;BME280;59750;53.356;-1.458;2022-11-15T00:16:34;99072.19;;;8.46;100.00
63035;BME280;59750;53.356;-1.458;2022-11-15T00:19:00;99068.75;;;8.45;100.00
63035;BME280;59750;53.356;-1.458;2022-11-15T00:21:26;99067.16;;;8.33;100.00
63035;BME280;59750;53.356;-1.458;2022-11-15T00:23:52;99064.84;;;8.19;100.00
63035;BME280;59750;53.356;-1.458;2022-11-15T00:26:19;99067.16;;;8.12;100.00
63035;BME280;59750;53.356;-1.458;2022-11-15T00:28:45;99067.03;;;8.14;100.00
63035;BME280;59750;53.356;-1.458;2022-11-15T00:31:13;99062.06;;;8.11;100.00
63035;BME280;59750;53.356;-1.458;2022-11-15T00:33:39;99058.88;;;8.07;100.00
63035;BME280;59750;53.356;-1.458;2022-11-15T00:36:07;99053.59;;;7.97;100.00
63035;BME280;59750;53.356;-1.458;2022-11-15T00:38:36;99048.41;;;7.86;100.00
63035;BME280;59750;53.356;-1.458;2022-11-15T00:41:04;99045.59;;;7.78;100.00
63035;BME280;59750;53.356;-1.458;2022-11-15T00:43:31;99046.13;;;7.72;100.00
63035;BME280;59750;53.356;-1.458;2022-11-15T00:45:57;99037.03;;;7.76;100.00
63035;BME280;59750;53.356;-1.458;2022-11-15T00:48:23;99034.69;;;7.73;100.00
63035;BME280;59750;53.356;-1.458;2022-11-15T00:50:49;99027.09;;;7.70;100.00
63035;BME280;59750;53.356;-1.458;2022-11-15T00:53:16;99019.69;;;7.75;100.00
63035;BME280;59750;53.356;-1.458;2022-11-15T00:55:42;99011.63;;;7.67;100.00
63035;BME280;59750;53.356;-1.458;2022-11-15T00:58:08;99010.47;;;7.60;100.00
63035;BME280;59750;53.356;-1.458;2022-11-15T01:00:34;99002.63;;;7.60;100.00
63035;BME280;59750;53.356;-1.458;2022-11-15T01:03:00;98999.44;;;7.56;100.00
63035;BME280;59750;53.356;-1.458;2022-11-15T01:05:28;98987.00;;;7.49;100.00
63035;BME280;59750;53.356;-1.458;2022-11-15T01:07:55;98975.13;;;7.44;100.00
63035;BME280;59750;53.356;-1.458;2022-11-15T01:10:22;98975.59;;;7.38;100.00
63035;BME280;59750;53.356;-1.458;2022-11-15T01:12:49;98979.00;;;7.29;100.00
63035;BME280;59750;53.356;-1.458;2022-11-15T01:15:15;98971.97;;;7.30;100.00
63035;BME280;59750;53.356;-1.458;2022-11-15T01:17:41;98962.59;;;7.27;100.00
63035;BME280;59750;53.356;-1.458;2022-11-15T01:20:08;98966.63;;;7.31;100.00
63035;BME280;59750;53.356;-1.458;2022-11-15T01:22:35;98965.66;;;7.32;100.00
63035;BME280;59750;53.356;-1.458;2022-11-15T01:25:00;98969.75;;;7.25;100.00
63035;BME280;59750;53.356;-1.458;2022-11-15T01:27:26;98966.44;;;7.23;100.00
63035;BME280;59750;53.356;-1.458;2022-11-15T01:29:52;98961.22;;;7.12;100.00
63035;BME280;59750;53.356;-1.458;2022-11-15T01:32:18;98952.56;;;7.11;100.00
63035;BME280;59750;53.356;-1.458;2022-11-15T01:34:44;98956.94;;;7.11;100.00
63035;BME280;59750;53.356;-1.458;2022-11-15T01:37:10;98947.44;;;7.10;100.00
63035;BME280;59750;53.356;-1.458;2022-11-15T01:39:36;98950.88;;;7.10;100.00
63035;BME280;59750;53.356;-1.458;2022-11-15T01:42:02;98943.19;;;7.09;100.00
63035;BME280;59750;53.356;-1.458;2022-11-15T01:44:38;98937.50;;;7.04;100.00
63035;BME280;59750;53.356;-1.458;2022-11-15T01:47:22;98938.97;;;6.97;100.00
63035;BME280;59750;53.356;-1.458;2022-11-15T01:52:29;98930.94;;;6.89;100.00
63035;BME280;59750;53.356;-1.458;2022-11-15T01:55:19;98929.00;;;6.91;100.00
63035;BME280;59750;53.356;-1.458;2022-11-15T01:57:47;98917.84;;;6.89;100.00
63035;BME280;59750;53.356;-1.458;2022-11-15T02:00:17;98910.25;;;6.86;100.00
63035;BME280;59750;53.356;-1.458;2022-11-15T02:02:43;98907.53;;;6.87;100.00
63035;BME280;59750;53.356;-1.458;2022-11-15T02:05:09;98908.34;;;6.88;100.00
63035;BME280;59750;53.356;-1.458;2022-11-15T02:07:36;98905.03;;;6.86;100.00
63035;BME280;59750;53.356;-1.458;2022-11-15T02:10:13;98899.31;;;6.92;100.00
63035;BME280;59750;53.356;-1.458;2022-11-15T02:12:40;98890.63;;;6.91;100.00
63035;BME280;59750;53.356;-1.458;2022-11-15T02:15:08;98887.63;;;6.96;100.00
63035;BME280;59750;53.356;-1.458;2022-11-15T02:20:43;98880.50;;;6.98;100.00
63035;BME280;59750;53.356;-1.458;2022-11-15T02:36:37;98845.81;;;6.96;100.00
63035;BME280;59750;53.356;-1.458;2022-11-15T02:41:57;98829.88;;;6.99;100.00
63035;BME280;59750;53.356;-1.458;2022-11-15T02:44:32;98822.03;;;6.99;100.00
63035;BME280;59750;53.356;-1.458;2022-11-15T02:47:02;98813.34;;;6.98;100.00
63035;BME280;59750;53.356;-1.458;2022-11-15T02:49:50;98808.00;;;7.00;100.00
63035;BME280;59750;53.356;-1.458;2022-11-15T02:52:20;98810.75;;;6.98;100.00
63035;BME280;59750;53.356;-1.458;2022-11-15T02:54:54;98802.75;;;7.00;100.00
63035;BME280;59750;53.356;-1.458;2022-11-15T02:57:38;98795.06;;;6.98;100.00
63035;BME280;59750;53.356;-1.458;2022-11-15T03:00:15;98791.09;;;7.04;100.00
63035;BME280;59750;53.356;-1.458;2022-11-15T03:05:41;98795.88;;;6.99;100.00
63035;BME280;59750;53.356;-1.458;2022-11-15T03:08:13;98777.72;;;6.97;100.00
63035;BME280;59750;53.356;-1.458;2022-11-15T03:13:38;98763.13;;;6.95;100.00
63035;BME280;59750;53.356;-1.458;2022-11-15T03:21:31;98756.63;;;6.89;100.00
63035;BME280;59750;53.356;-1.458;2022-11-15T03:24:03;98756.97;;;6.85;100.00
63035;BME280;59750;53.356;-1.458;2022-11-15T03:26:33;98751.53;;;6.88;100.00
63035;BME280;59750;53.356;-1.458;2022-11-15T03:29:06;98751.75;;;6.85;100.00
63035;BME280;59750;53.356;-1.458;2022-11-15T03:31:38;98740.16;;;6.77;100.00
63035;BME280;59750;53.356;-1.458;2022-11-15T03:34:28;98735.63;;;6.79;100.00
63035;BME280;59750;53.356;-1.458;2022-11-15T03:36:55;98738.00;;;6.82;100.00
63035;BME280;59750;53.356;-1.458;2022-11-15T03:39:23;98731.38;;;6.78;100.00
63035;BME280;59750;53.356;-1.458;2022-11-15T03:41:56;98723.41;;;6.80;100.00
